METAR AND TAF INFORMATION
METAR FOR LEAM
ADDS - METARS form results

(1006 UTC 28 November 2020)
Data provider http://aviationweather.gov/metar/data/
 
METAR text: LEAM 281000Z 27012KT 9999 FEW030 17/05 Q1006
Conditions at: LEAM (ALMERIA AIRPORT , ES) observed 1000 UTC 28 November 2020
Temperature: 17.0°C (63°F)
Dewpoint: 5.0°C (41°F) [RH = 45%]
Pressure (altimeter): 29.70 inches Hg (1006.0 mb)
Winds: from the W (270 degrees) at 14 MPH (12 knots; 6.2 m/s)
Visibility: 6 or more miles (10+ km)
Ceiling: at least 12,000 feet AGL
Clouds: few clouds at 3000 feet AGL
Weather: no significant weather observed at this time

METAR text: LEAM 280930Z 28007KT 240V310 CAVOK 15/04 Q1006
Conditions at: LEAM (ALMERIA AIRPORT , ES) observed 0930 UTC 28 November 2020
Temperature: 15.0°C (59°F)
Dewpoint: 4.0°C (39°F) [RH = 48%]
Pressure (altimeter): 29.70 inches Hg (1006.0 mb)
Winds: from the W (280 degrees) at 8 MPH (7 knots; 3.6 m/s)
Visibility: 6 or more miles (10+ km)
Ceiling: ceiling and visibility are OK
Clouds: unknown
Weather: no significant weather observed at this time

Forecast for: LEAM (ALMERIA AIRPORT , ES)
Text: TAF LEAM 280800Z 2809/2909 33010KT 9999 FEW020 TX17/2814Z TN10/2906Z
Forecast period: 0900 to 1000 UTC 28 November 2020
Forecast type: FROM: standard forecast or significant change
Winds: from the NNW (330 degrees) at 12 MPH (10 knots; 5.1 m/s)
Visibility: 6 or more miles (10+ km)
Ceiling: at least 12,000 feet AGL
Clouds: few clouds at 2000 feet AGL
Weather: no significant weather forecast for this period
Text: BECMG 2810/2812 23004KT
Forecast period: 1000 to 1700 UTC 28 November 2020
Forecast type: BECOMING: Conditions expected to become as follows by 1200 UTC 28 November 2020
Winds: from the SW (230 degrees) at 5 MPH (4 knots; 2.1 m/s)
Visibility: 6 or more miles (10+ km)
Ceiling: at least 12,000 feet AGL
Clouds: few clouds at 2000 feet AGL
Weather: no significant weather forecast for this period
Text: BECMG 2817/2819 33010KT
Forecast period: 1700 UTC 28 November 2020 to 0900 UTC 29 November 2020
Forecast type: BECOMING: Conditions expected to become as follows by 1900 UTC 28 November 2020
Winds: from the NNW (330 degrees) at 12 MPH (10 knots; 5.1 m/s)
Visibility: 6 or more miles (10+ km)
Ceiling: at least 12,000 feet AGL
Clouds: few clouds at 2000 feet AGL
Weather: no significant weather forecast for this period

 AIRPORT MAP

 RUNWAY INFORMATION
Runway 08 Runway length 10499 ft Runway width 148 ft
Runway elevation 26 ft Runway displaced threshold 492 ft Runway heading 73
Runway 26 Runway length 10499 ft Runway width 148 ft
Runway elevation 70 ft Runway displaced threshold 0 ft Runway heading 253

 AIRPORT FREQUENCIES
Type APP Name APP Frequency 118.35 MHZ
Type GND Name GND Frequency 121.7 MHZ
Type TWR Name TWR Frequency 118.35 MHZ

 AIRPORT NEAR NAVIGATION AIDS
Type NDB Name Almeria Frequency 284 KHZ
Type NDB Name Almeria Frequency 310 KHZ
Type VOR-DME Name Almeria Frequency 114100 KHZ



Powered by Virtual Airlines Manager [v2.6.2]